sensor_id;sensor_type;location;lat;lon;timestamp;pressure;altitude;pressure_sealevel;temperature;humidity
84914;BME280;75177;43.832;5.974;2024-03-02T00:00:07;94325.63;;;9.84;61.48
84914;BME280;75177;43.832;5.974;2024-03-02T00:02:43;94307.59;;;9.86;63.93
84914;BME280;75177;43.832;5.974;2024-03-02T00:05:14;94309.44;;;9.70;63.93
84914;BME280;75177;43.832;5.974;2024-03-02T00:07:44;94310.19;;;9.64;63.80
84914;BME280;75177;43.832;5.974;2024-03-02T00:10:11;94324.69;;;9.77;62.53
84914;BME280;75177;43.832;5.974;2024-03-02T00:12:41;94338.13;;;9.68;67.27
84914;BME280;75177;43.832;5.974;2024-03-02T00:18:09;94344.19;;;9.62;65.53
84914;BME280;75177;43.832;5.974;2024-03-02T00:20:36;94341.63;;;9.54;64.99
84914;BME280;75177;43.832;5.974;2024-03-02T00:23:06;94341.53;;;9.62;66.19
84914;BME280;75177;43.832;5.974;2024-03-02T00:25:41;94332.69;;;9.77;67.40
84914;BME280;75177;43.832;5.974;2024-03-02T00:28:15;94344.91;;;9.86;66.95
84914;BME280;75177;43.832;5.974;2024-03-02T00:33:19;94334.69;;;9.89;66.04
84914;BME280;75177;43.832;5.974;2024-03-02T00:35:46;94344.63;;;9.95;67.30
84914;BME280;75177;43.832;5.974;2024-03-02T00:38:12;94337.72;;;10.01;69.15
84914;BME280;75177;43.832;5.974;2024-03-02T00:40:39;94338.00;;;9.91;68.50
84914;BME280;75177;43.832;5.974;2024-03-02T00:43:05;94339.22;;;9.89;67.50
84914;BME280;75177;43.832;5.974;2024-03-02T00:45:31;94342.16;;;9.79;69.06
84914;BME280;75177;43.832;5.974;2024-03-02T00:47:56;94347.31;;;9.81;68.43
84914;BME280;75177;43.832;5.974;2024-03-02T00:50:22;94351.75;;;9.73;67.16
84914;BME280;75177;43.832;5.974;2024-03-02T00:52:47;94354.94;;;9.69;66.62
84914;BME280;75177;43.832;5.974;2024-03-02T00:55:16;94330.03;;;9.47;68.65
84914;BME280;75177;43.832;5.974;2024-03-02T00:57:41;94358.00;;;9.51;66.90
84914;BME280;75177;43.832;5.974;2024-03-02T01:00:07;94353.94;;;9.55;70.10
84914;BME280;75177;43.832;5.974;2024-03-02T01:02:35;94344.38;;;9.46;71.90
84914;BME280;75177;43.832;5.974;2024-03-02T01:05:01;94356.78;;;9.54;73.45
84914;BME280;75177;43.832;5.974;2024-03-02T01:07:26;94352.09;;;9.41;68.85
84914;BME280;75177;43.832;5.974;2024-03-02T01:09:52;94348.44;;;9.42;70.50
84914;BME280;75177;43.832;5.974;2024-03-02T01:12:17;94349.25;;;9.28;69.86
84914;BME280;75177;43.832;5.974;2024-03-02T01:14:43;94350.44;;;9.40;71.98
84914;BME280;75177;43.832;5.974;2024-03-02T01:17:08;94342.16;;;9.35;70.99
84914;BME280;75177;43.832;5.974;2024-03-02T01:19:33;94348.44;;;9.42;72.51
84914;BME280;75177;43.832;5.974;2024-03-02T01:21:59;94351.44;;;9.54;72.96
84914;BME280;75177;43.832;5.974;2024-03-02T01:24:24;94355.78;;;9.55;71.67
84914;BME280;75177;43.832;5.974;2024-03-02T01:26:49;94348.03;;;9.45;70.87
84914;BME280;75177;43.832;5.974;2024-03-02T01:29:15;94353.31;;;9.53;74.58
84914;BME280;75177;43.832;5.974;2024-03-02T01:31:41;94349.63;;;9.54;72.90
84914;BME280;75177;43.832;5.974;2024-03-02T01:34:08;94340.69;;;9.47;73.60
84914;BME280;75177;43.832;5.974;2024-03-02T01:36:33;94342.47;;;9.40;73.85
84914;BME280;75177;43.832;5.974;2024-03-02T01:38:59;94334.19;;;9.35;71.85
84914;BME280;75177;43.832;5.974;2024-03-02T01:41:25;94338.84;;;9.33;71.33
84914;BME280;75177;43.832;5.974;2024-03-02T01:43:50;94340.88;;;9.31;70.60
84914;BME280;75177;43.832;5.974;2024-03-02T01:46:16;94347.88;;;9.32;74.75
84914;BME280;75177;43.832;5.974;2024-03-02T01:48:41;94334.00;;;9.22;75.67
84914;BME280;75177;43.832;5.974;2024-03-02T01:51:07;94332.03;;;9.16;75.85
84914;BME280;75177;43.832;5.974;2024-03-02T01:53:34;94313.50;;;9.08;76.00
84914;BME280;75177;43.832;5.974;2024-03-02T01:55:59;94340.31;;;9.07;75.15
84914;BME280;75177;43.832;5.974;2024-03-02T01:58:26;94339.47;;;9.06;74.97
84914;BME280;75177;43.832;5.974;2024-03-02T02:00:52;94323.75;;;8.97;77.80
84914;BME280;75177;43.832;5.974;2024-03-02T02:03:17;94337.91;;;8.97;75.55
84914;BME280;75177;43.832;5.974;2024-03-02T02:05:43;94335.66;;;8.86;75.98
84914;BME280;75177;43.832;5.974;2024-03-02T02:08:08;94324.56;;;8.82;79.07
84914;BME280;75177;43.832;5.974;2024-03-02T02:10:34;94336.63;;;8.93;77.62
84914;BME280;75177;43.832;5.974;2024-03-02T02:12:59;94334.59;;;8.95;74.58
84914;BME280;75177;43.832;5.974;2024-03-02T02:15:25;94336.00;;;8.83;77.65
84914;BME280;75177;43.832;5.974;2024-03-02T02:17:51;94332.69;;;8.81;76.54
84914;BME280;75177;43.832;5.974;2024-03-02T02:20:17;94333.94;;;8.93;78.70
84914;BME280;75177;43.832;5.974;2024-03-02T02:23:01;94330.56;;;8.99;75.27
84914;BME280;75177;43.832;5.974;2024-03-02T02:25:27;94327.25;;;8.97;74.63
84914;BME280;75177;43.832;5.974;2024-03-02T02:27:53;94330.22;;;8.79;79.44
84914;BME280;75177;43.832;5.974;2024-03-02T02:30:29;94319.69;;;8.86;77.67
84914;BME280;75177;43.832;5.974;2024-03-02T02:32:55;94320.88;;;8.83;74.96
84914;BME280;75177;43.832;5.974;2024-03-02T02:35:21;94308.47;;;8.76;76.77
84914;BME280;75177;43.832;5.974;2024-03-02T02:37:47;94312.13;;;8.75;79.99
84914;BME280;75177;43.832;5.974;2024-03-02T02:40:14;94308.84;;;8.73;79.98
84914;BME280;75177;43.832;5.974;2024-03-02T02:42:39;94308.16;;;8.56;78.56
84914;BME280;75177;43.832;5.974;2024-03-02T02:45:06;94303.66;;;8.57;76.33
84914;BME280;75177;43.832;5.974;2024-03-02T02:47:32;94296.31;;;8.59;78.26
84914;BME280;75177;43.832;5.974;2024-03-02T02:50:00;94291.38;;;8.56;78.43
84914;BME280;75177;43.832;5.974;2024-03-02T02:52:31;94299.06;;;8.51;78.59
84914;BME280;75177;43.832;5.974;2024-03-02T02:54:58;94301.06;;;8.49;76.09
84914;BME280;75177;43.832;5.974;2024-03-02T02:57:23;94294.78;;;8.42;78.94
84914;BME280;75177;43.832;5.974;2024-03-02T02:59:49;94288.56;;;8.35;77.50
84914;BME280;75177;43.832;5.974;2024-03-02T03:02:14;94297.88;;;8.31;77.07
84914;BME280;75177;43.832;5.974;2024-03-02T03:04:40;94311.56;;;8.20;78.36
84914;BME280;75177;43.832;5.974;2024-03-02T03:07:05;94300.72;;;8.21;77.28
84914;BME280;75177;43.832;5.974;2024-03-02T03:09:31;94304.22;;;8.22;76.67
84914;BME280;75177;43.832;5.974;2024-03-02T03:11:56;94303.22;;;8.31;74.62
84914;BME280;75177;43.832;5.974;2024-03-02T03:14:22;94303.78;;;8.41;77.71
84914;BME280;75177;43.832;5.974;2024-03-02T03:16:48;94306.63;;;8.39;76.07
84914;BME280;75177;43.832;5.974;2024-03-02T03:19:13;94302.00;;;8.33;78.04
84914;BME280;75177;43.832;5.974;2024-03-02T03:21:39;94307.53;;;8.24;80.64
84914;BME280;75177;43.832;5.974;2024-03-02T03:24:04;94302.91;;;8.26;80.19
84914;BME280;75177;43.832;5.974;2024-03-02T03:26:30;94311.22;;;8.23;78.37
84914;BME280;75177;43.832;5.974;2024-03-02T03:28:55;94313.09;;;8.14;80.32
84914;BME280;75177;43.832;5.974;2024-03-02T03:31:20;94319.59;;;8.11;79.12
84914;BME280;75177;43.832;5.974;2024-03-02T03:33:46;94326.53;;;8.12;78.15
84914;BME280;75177;43.832;5.974;2024-03-02T03:36:11;94314.47;;;8.02;80.92
84914;BME280;75177;43.832;5.974;2024-03-02T03:38:36;94311.16;;;8.00;78.19
84914;BME280;75177;43.832;5.974;2024-03-02T03:41:02;94320.28;;;8.05;77.16
84914;BME280;75177;43.832;5.974;2024-03-02T03:43:28;94325.94;;;8.02;79.63
84914;BME280;75177;43.832;5.974;2024-03-02T03:45:54;94324.31;;;8.24;81.08
84914;BME280;75177;43.832;5.974;2024-03-02T03:48:20;94321.72;;;8.16;80.50
84914;BME280;75177;43.832;5.974;2024-03-02T03:50:45;94326.53;;;8.12;81.39
84914;BME280;75177;43.832;5.974;2024-03-02T03:53:10;94319.13;;;8.00;81.97
84914;BME280;75177;43.832;5.974;2024-03-02T03:55:36;94323.34;;;7.94;82.45
84914;BME280;75177;43.832;5.974;2024-03-02T03:58:01;94305.31;;;7.82;82.94
84914;BME280;75177;43.832;5.974;2024-03-02T04:00:26;94315.19;;;7.96;79.48
84914;BME280;75177;43.832;5.974;2024-03-02T04:02:52;94311.06;;;7.93;80.49
84914;BME280;75177;43.832;5.974;2024-03-02T04:05:17;94307.06;;;7.97;80.31
84914;BME280;75177;43.832;5.974;2024-03-02T04:07:43;94300.91;;;7.97;81.35
84914;BME280;75177;43.832;5.974;2024-03-02T04:10:09;94314.00;;;7.98;81.47
84914;BME280;75177;43.832;5.974;2024-03-02T04:12:38;94311.41;;;7.90;79.14
84914;BME280;75177;43.832;5.974;2024-03-02T04:15:04;94317.03;;;7.95;80.49
84914;BME280;75177;43.832;5.974;2024-03-02T04:17:31;94316.00;;;7.96;81.34
84914;BME280;75177;43.832;5.974;2024-03-02T04:19:57;94319.69;;;7.95;81.08
84914;BME280;75177;43.832;5.974;2024-03-02T04:22:22;94314.72;;;7.92;80.25
84914;BME280;75177;43.832;5.974;2024-03-02T04:24:48;94309.75;;;7.89;82.73
84914;BME280;75177;43.832;5.974;2024-03-02T04:27:13;94307.06;;;7.97;81.75
84914;BME280;75177;43.832;5.974;2024-03-02T04:29:39;94301.38;;;8.00;82.81
84914;BME280;75177;43.832;5.974;2024-03-02T04:32:04;94296.19;;;8.07;84.35
84914;BME280;75177;43.832;5.974;2024-03-02T04:34:30;94275.88;;;7.91;83.91
84914;BME280;75177;43.832;5.974;2024-03-02T04:36:55;94292.69;;;8.06;85.59
84914;BME280;75177;43.832;5.974;2024-03-02T04:39:20;94296.06;;;8.00;82.42
84914;BME280;75177;43.832;5.974;2024-03-02T04:41:46;94291.44;;;7.94;83.65
84914;BME280;75177;43.832;5.974;2024-03-02T04:44:11;94295.13;;;7.85;83.80
84914;BME280;75177;43.832;5.974;2024-03-02T04:46:37;94281.63;;;7.72;82.04
84914;BME280;75177;43.832;5.974;2024-03-02T04:49:02;94287.44;;;7.98;84.81
84914;BME280;75177;43.832;5.974;2024-03-02T04:51:27;94289.69;;;8.09;84.88
84914;BME280;75177;43.832;5.974;2024-03-02T04:53:53;94286.72;;;8.04;87.54
84914;BME280;75177;43.832;5.974;2024-03-02T04:56:18;94291.81;;;7.91;84.77
84914;BME280;75177;43.832;5.974;2024-03-02T04:58:56;94290.47;;;7.87;83.33
84914;BME280;75177;43.832;5.974;2024-03-02T05:01:21;94290.13;;;7.90;86.19
84914;BME280;75177;43.832;5.974;2024-03-02T05:03:47;94288.72;;;8.02;87.20
84914;BME280;75177;43.832;5.974;2024-03-02T05:06:12;94281.06;;;8.07;88.00
84914;BME280;75177;43.832;5.974;2024-03-02T05:08:37;94281.06;;;8.07;87.56
84914;BME280;75177;43.832;5.974;2024-03-02T05:11:03;94274.47;;;8.03;89.19
84914;BME280;75177;43.832;5.974;2024-03-02T05:13:47;94286.00;;;8.10;89.76
84914;BME280;75177;43.832;5.974;2024-03-02T05:16:12;94268.50;;;8.01;91.01
84914;BME280;75177;43.832;5.974;2024-03-02T05:18:38;94272.06;;;8.08;90.10
84914;BME280;75177;43.832;5.974;2024-03-02T05:21:03;94273.81;;;8.01;89.07
84914;BME280;75177;43.832;5.974;2024-03-02T05:23:29;94279.78;;;8.03;89.41
84914;BME280;75177;43.832;5.974;2024-03-02T05:25:54;94282.47;;;7.95;90.51
84914;BME280;75177;43.832;5.974;2024-03-02T05:28:19;94288.84;;;7.86;89.50
84914;BME280;75177;43.832;5.974;2024-03-02T05:30:45;94298.88;;;7.76;88.43
84914;BME280;75177;43.832;5.974;2024-03-02T05:33:11;94295.25;;;7.69;86.37
84914;BME280;75177;43.832;5.974;2024-03-02T05:35:37;94300.25;;;7.64;85.91
84914;BME280;75177;43.832;5.974;2024-03-02T05:38:02;94306.94;;;7.52;85.57
84914;BME280;75177;43.832;5.974;2024-03-02T05:40:27;94306.59;;;7.55;87.50
84914;BME280;75177;43.832;5.974;2024-03-02T05:42:53;94306.59;;;7.55;85.84
84914;BME280;75177;43.832;5.974;2024-03-02T05:45:18;94301.66;;;7.44;84.75
84914;BME280;75177;43.832;5.974;2024-03-02T05:47:43;94293.69;;;7.44;87.04
84914;BME280;75177;43.832;5.974;2024-03-02T05:50:09;94303.00;;;7.40;85.74
84914;BME280;75177;43.832;5.974;2024-03-02T05:52:34;94297.03;;;7.38;88.07
84914;BME280;75177;43.832;5.974;2024-03-02T05:55:00;94304.34;;;7.36;88.54
84914;BME280;75177;43.832;5.974;2024-03-02T05:57:25;94304.66;;;7.41;88.46
84914;BME280;75177;43.832;5.974;2024-03-02T06:00:14;94306.06;;;7.29;87.33
84914;BME280;75177;43.832;5.974;2024-03-02T06:02:42;94301.75;;;7.20;85.89
84914;BME280;75177;43.832;5.974;2024-03-02T06:05:08;94293.44;;;7.23;86.14
84914;BME280;75177;43.832;5.974;2024-03-02T06:07:33;94285.84;;;7.20;88.60
84914;BME280;75177;43.832;5.974;2024-03-02T06:09:59;94287.97;;;7.24;88.25
84914;BME280;75177;43.832;5.974;2024-03-02T06:12:24;94280.53;;;7.20;88.68
84914;BME280;75177;43.832;5.974;2024-03-02T06:14:50;94283.69;;;7.15;90.06
84914;BME280;75177;43.832;5.974;2024-03-02T06:17:15;94279.38;;;7.14;89.19
84914;BME280;75177;43.832;5.974;2024-03-02T06:19:42;94263.97;;;7.10;88.49
84914;BME280;75177;43.832;5.974;2024-03-02T06:22:07;94282.16;;;7.21;88.64
84914;BME280;75177;43.832;5.974;2024-03-02T06:24:36;94299.28;;;7.18;88.86
84914;BME280;75177;43.832;5.974;2024-03-02T06:27:02;94289.00;;;7.15;89.00
84914;BME280;75177;43.832;5.974;2024-03-02T06:29:28;94289.34;;;7.12;87.78
84914;BME280;75177;43.832;5.974;2024-03-02T06:31:53;94293.47;;;7.15;90.20
84914;BME280;75177;43.832;5.974;2024-03-02T06:34:19;94291.97;;;7.20;88.03
84914;BME280;75177;43.832;5.974;2024-03-02T06:36:44;94285.84;;;7.20;90.57
84914;BME280;75177;43.832;5.974;2024-03-02T06:39:09;94299.59;;;7.15;91.80
84914;BME280;75177;43.832;5.974;2024-03-02T06:41:35;94283.22;;;7.12;90.52
84914;BME280;75177;43.832;5.974;2024-03-02T06:44:00;94282.38;;;7.11;90.47
84914;BME280;75177;43.832;5.974;2024-03-02T06:46:26;94285.19;;;7.18;92.66
84914;BME280;75177;43.832;5.974;2024-03-02T06:48:51;94283.00;;;7.21;92.44
84914;BME280;75177;43.832;5.974;2024-03-02T06:51:17;94289.13;;;7.22;92.50
84914;BME280;75177;43.832;5.974;2024-03-02T06:53:42;94282.81;;;7.23;93.67
84914;BME280;75177;43.832;5.974;2024-03-02T06:56:08;94288.13;;;7.23;94.57
84914;BME280;75177;43.832;5.974;2024-03-02T06:58:33;94290.78;;;7.23;95.06
84914;BME280;75177;43.832;5.974;2024-03-02T07:00:59;94293.75;;;7.28;94.91
84914;BME280;75177;43.832;5.974;2024-03-02T07:03:26;94286.94;;;7.33;96.26
84914;BME280;75177;43.832;5.974;2024-03-02T07:05:51;94286.44;;;7.30;97.05
84914;BME280;75177;43.832;5.974;2024-03-02T07:08:16;94270.53;;;7.30;96.94
84914;BME280;75177;43.832;5.974;2024-03-02T07:10:42;94275.50;;;7.33;99.02
84914;BME280;75177;43.832;5.974;2024-03-02T07:13:07;94271.50;;;7.37;100.00
84914;BME280;75177;43.832;5.974;2024-03-02T07:15:33;94278.44;;;7.38;100.00
84914;BME280;75177;43.832;5.974;2024-03-02T07:18:17;94259.56;;;7.33;99.14
84914;BME280;75177;43.832;5.974;2024-03-02T07:20:42;94279.44;;;7.45;100.00
84914;BME280;75177;43.832;5.974;2024-03-02T07:23:08;94268.44;;;7.48;100.00
84914;BME280;75177;43.832;5.974;2024-03-02T07:25:34;94238.94;;;7.43;100.00
84914;BME280;75177;43.832;5.974;2024-03-02T07:27:59;94249.34;;;7.53;100.00
84914;BME280;75177;43.832;5.974;2024-03-02T07:30:25;94240.16;;;7.63;100.00
84914;BME280;75177;43.832;5.974;2024-03-02T07:32:50;94235.81;;;7.70;100.00
84914;BME280;75177;43.832;5.974;2024-03-02T07:35:16;94234.28;;;7.76;100.00
84914;BME280;75177;43.832;5.974;2024-03-02T07:37:42;94231.44;;;7.77;100.00
84914;BME280;75177;43.832;5.974;2024-03-02T07:40:08;94236.28;;;7.74;100.00
84914;BME280;75177;43.832;5.974;2024-03-02T07:42:37;94230.00;;;7.67;100.00
84914;BME280;75177;43.832;5.974;2024-03-02T07:45:04;94248.38;;;7.76;100.00
84914;BME280;75177;43.832;5.974;2024-03-02T07:47:29;94256.34;;;7.76;100.00
84914;BME280;75177;43.832;5.974;2024-03-02T07:49:54;94262.13;;;7.80;100.00
84914;BME280;75177;43.832;5.974;2024-03-02T07:52:20;94258.97;;;7.84;100.00
84914;BME280;75177;43.832;5.974;2024-03-02T07:54:45;94261.63;;;7.84;100.00
84914;BME280;75177;43.832;5.974;2024-03-02T07:57:11;94275.56;;;7.86;100.00
84914;BME280;75177;43.832;5.974;2024-03-02T07:59:36;94275.88;;;7.83;100.00
84914;BME280;75177;43.832;5.974;2024-03-02T08:02:02;94295.78;;;7.95;100.00
84914;BME280;75177;43.832;5.974;2024-03-02T08:04:28;94307.34;;;8.02;99.59
84914;BME280;75177;43.832;5.974;2024-03-02T08:06:53;94309.66;;;8.05;100.00
84914;BME280;75177;43.832;5.974;2024-03-02T08:09:19;94303.97;;;8.08;98.25
84914;BME280;75177;43.832;5.974;2024-03-02T08:11:45;94286.44;;;7.99;100.00
84914;BME280;75177;43.832;5.974;2024-03-02T08:14:10;94287.75;;;8.03;100.00
84914;BME280;75177;43.832;5.974;2024-03-02T08:16:36;94286.72;;;8.04;100.00
84914;BME280;75177;43.832;5.974;2024-03-02T08:19:01;94281.06;;;8.07;100.00
84914;BME280;75177;43.832;5.974;2024-03-02T08:21:26;94277.88;;;8.12;100.00
84914;BME280;75177;43.832;5.974;2024-03-02T08:23:57;94273.38;;;8.12;100.00
84914;BME280;75177;43.832;5.974;2024-03-02T08:26:23;94280.00;;;8.17;100.00
84914;BME280;75177;43.832;5.974;2024-03-02T08:28:48;94291.91;;;8.21;100.00
84914;BME280;75177;43.832;5.974;2024-03-02T08:31:14;94274.69;;;8.17;100.00
84914;BME280;75177;43.832;5.974;2024-03-02T08:33:39;94289.59;;;8.26;100.00
84914;BME280;75177;43.832;5.974;2024-03-02T08:36:06;94288.91;;;8.32;100.00
84914;BME280;75177;43.832;5.974;2024-03-02T08:38:31;94295.50;;;8.36;100.00
84914;BME280;75177;43.832;5.974;2024-03-02T08:40:57;94299.00;;;8.36;100.00
84914;BME280;75177;43.832;5.974;2024-03-02T08:43:22;94289.53;;;8.34;100.00
84914;BME280;75177;43.832;5.974;2024-03-02T08:45:48;94310.75;;;8.42;100.00
84914;BME280;75177;43.832;5.974;2024-03-02T08:48:14;94309.75;;;8.43;100.00
84914;BME280;75177;43.832;5.974;2024-03-02T08:50:39;94310.41;;;8.45;100.00
84914;BME280;75177;43.832;5.974;2024-03-02T08:53:05;94313.72;;;8.47;100.00
84914;BME280;75177;43.832;5.974;2024-03-02T08:55:31;94299.25;;;8.49;100.00
84914;BME280;75177;43.832;5.974;2024-03-02T08:57:56;94293.72;;;8.51;100.00
84914;BME280;75177;43.832;5.974;2024-03-02T09:00:22;94303.00;;;8.55;100.00
84914;BME280;75177;43.832;5.974;2024-03-02T09:02:47;94297.50;;;8.56;100.00
84914;BME280;75177;43.832;5.974;2024-03-02T09:05:13;94301.31;;;8.62;100.00
84914;BME280;75177;43.832;5.974;2024-03-02T09:07:38;94304.22;;;8.67;100.00
84914;BME280;75177;43.832;5.974;2024-03-02T09:10:07;94303.50;;;8.73;100.00
84914;BME280;75177;43.832;5.974;2024-03-02T09:12:33;94307.66;;;8.75;100.00
84914;BME280;75177;43.832;5.974;2024-03-02T09:15:00;94314.72;;;8.83;100.00
84914;BME280;75177;43.832;5.974;2024-03-02T09:17:26;94310.72;;;8.87;100.00
84914;BME280;75177;43.832;5.974;2024-03-02T09:19:51;94313.00;;;8.90;100.00
84914;BME280;75177;43.832;5.974;2024-03-02T09:22:18;94302.28;;;8.98;100.00
84914;BME280;75177;43.832;5.974;2024-03-02T09:24:44;94304.41;;;9.03;100.00
84914;BME280;75177;43.832;5.974;2024-03-02T09:27:09;94304.50;;;9.09;100.00
84914;BME280;75177;43.832;5.974;2024-03-02T09:29:34;94299.75;;;9.19;100.00
84914;BME280;75177;43.832;5.974;2024-03-02T09:32:00;94302.69;;;9.24;100.00
84914;BME280;75177;43.832;5.974;2024-03-02T09:34:25;94306.00;;;9.26;100.00
84914;BME280;75177;43.832;5.974;2024-03-02T09:36:51;94302.84;;;9.37;100.00
84914;BME280;75177;43.832;5.974;2024-03-02T09:39:17;94302.50;;;9.40;100.00
84914;BME280;75177;43.832;5.974;2024-03-02T09:41:43;94306.66;;;9.43;100.00
84914;BME280;75177;43.832;5.974;2024-03-02T09:44:10;94298.66;;;9.43;100.00
84914;BME280;75177;43.832;5.974;2024-03-02T09:46:35;94308.09;;;9.45;100.00
84914;BME280;75177;43.832;5.974;2024-03-02T09:49:02;94306.72;;;9.49;100.00
84914;BME280;75177;43.832;5.974;2024-03-02T09:51:27;94303.47;;;9.68;100.00
84914;BME280;75177;43.832;5.974;2024-03-02T09:53:55;94306.97;;;9.69;100.00
84914;BME280;75177;43.832;5.974;2024-03-02T09:56:21;94305.78;;;9.71;100.00
84914;BME280;75177;43.832;5.974;2024-03-02T09:58:47;94300.06;;;9.74;100.00
84914;BME280;75177;43.832;5.974;2024-03-02T10:01:12;94294.75;;;9.74;100.00
84914;BME280;75177;43.832;5.974;2024-03-02T10:03:38;94308.00;;;9.83;99.89
84914;BME280;75177;43.832;5.974;2024-03-02T10:06:24;94305.97;;;9.85;100.00
84914;BME280;75177;43.832;5.974;2024-03-02T10:08:50;94295.56;;;9.90;99.71
84914;BME280;75177;43.832;5.974;2024-03-02T10:11:36;94291.88;;;9.91;99.52
84914;BME280;75177;43.832;5.974;2024-03-02T10:14:10;94285.91;;;9.89;100.00
84914;BME280;75177;43.832;5.974;2024-03-02T10:16:38;94291.78;;;9.99;100.00
84914;BME280;75177;43.832;5.974;2024-03-02T10:21:50;94288.59;;;10.10;100.00
84914;BME280;75177;43.832;5.974;2024-03-02T10:24:17;94282.00;;;10.06;100.00
84914;BME280;75177;43.832;5.974;2024-03-02T10:26:43;94281.91;;;10.14;100.00
84914;BME280;75177;43.832;5.974;2024-03-02T10:29:09;94270.66;;;10.18;100.00
84914;BME280;75177;43.832;5.974;2024-03-02T10:31:37;94267.06;;;10.26;100.00
84914;BME280;75177;43.832;5.974;2024-03-02T10:34:03;94276.78;;;10.33;100.00
84914;BME280;75177;43.832;5.974;2024-03-02T10:36:29;94276.97;;;10.32;100.00
84914;BME280;75177;43.832;5.974;2024-03-02T10:38:56;94279.97;;;10.43;100.00
84914;BME280;75177;43.832;5.974;2024-03-02T10:41:26;94275.59;;;10.57;100.00
84914;BME280;75177;43.832;5.974;2024-03-02T10:43:53;94268.59;;;10.56;100.00
84914;BME280;75177;43.832;5.974;2024-03-02T10:46:27;94264.00;;;10.50;100.00
84914;BME280;75177;43.832;5.974;2024-03-02T10:48:54;94264.78;;;10.65;99.20
84914;BME280;75177;43.832;5.974;2024-03-02T10:51:20;94260.81;;;10.82;95.09
84914;BME280;75177;43.832;5.974;2024-03-02T10:53:45;94253.19;;;10.79;97.35
84914;BME280;75177;43.832;5.974;2024-03-02T10:56:16;94258.66;;;10.71;99.39
84914;BME280;75177;43.832;5.974;2024-03-02T10:58:51;94251.28;;;10.73;100.00
84914;BME280;75177;43.832;5.974;2024-03-02T11:01:20;94254.28;;;10.91;98.53
84914;BME280;75177;43.832;5.974;2024-03-02T11:03:47;94269.78;;;11.02;97.90
84914;BME280;75177;43.832;5.974;2024-03-02T11:06:13;94252.50;;;10.98;99.32
84914;BME280;75177;43.832;5.974;2024-03-02T11:08:40;94271.94;;;11.13;94.04
84914;BME280;75177;43.832;5.974;2024-03-02T11:11:06;94274.41;;;11.15;93.74
84914;BME280;75177;43.832;5.974;2024-03-02T11:13:34;94273.56;;;11.14;94.79
84914;BME280;75177;43.832;5.974;2024-03-02T11:16:05;94265.34;;;11.16;94.85
84914;BME280;75177;43.832;5.974;2024-03-02T11:18:32;94255.59;;;11.29;93.31
84914;BME280;75177;43.832;5.974;2024-03-02T11:20:58;94244.81;;;11.16;95.74
84914;BME280;75177;43.832;5.974;2024-03-02T11:23:34;94255.97;;;11.26;96.86
84914;BME280;75177;43.832;5.974;2024-03-02T11:26:19;94247.41;;;11.38;94.50
84914;BME280;75177;43.832;5.974;2024-03-02T11:28:45;94240.91;;;11.47;94.24
84914;BME280;75177;43.832;5.974;2024-03-02T11:31:11;94228.13;;;11.42;96.94
84914;BME280;75177;43.832;5.974;2024-03-02T11:33:36;94229.34;;;11.40;97.44
84914;BME280;75177;43.832;5.974;2024-03-02T11:36:02;94235.19;;;11.56;95.64
84914;BME280;75177;43.832;5.974;2024-03-02T11:38:30;94235.28;;;11.69;94.59
84914;BME280;75177;43.832;5.974;2024-03-02T11:40:56;94222.41;;;11.52;98.40
84914;BME280;75177;43.832;5.974;2024-03-02T11:43:21;94236.00;;;11.57;98.61
84914;BME280;75177;43.832;5.974;2024-03-02T11:45:48;94223.91;;;11.61;99.18
84914;BME280;75177;43.832;5.974;2024-03-02T11:48:15;94221.69;;;11.71;96.39
84914;BME280;75177;43.832;5.974;2024-03-02T11:53:08;94230.41;;;11.99;94.65
84914;BME280;75177;43.832;5.974;2024-03-02T11:55:35;94218.28;;;11.90;93.33
84914;BME280;75177;43.832;5.974;2024-03-02T11:58:02;94228.75;;;11.85;94.88
84914;BME280;75177;43.832;5.974;2024-03-02T12:00:27;94212.94;;;11.90;97.31
84914;BME280;75177;43.832;5.974;2024-03-02T12:03:04;94190.94;;;12.07;95.50
84914;BME280;75177;43.832;5.974;2024-03-02T12:05:31;94204.53;;;12.06;96.03
84914;BME280;75177;43.832;5.974;2024-03-02T12:08:04;94204.13;;;12.09;94.98
84914;BME280;75177;43.832;5.974;2024-03-02T12:10:31;94206.97;;;12.01;97.13
84914;BME280;75177;43.832;5.974;2024-03-02T12:13:01;94208.66;;;12.22;94.83
84914;BME280;75177;43.832;5.974;2024-03-02T12:15:28;94200.44;;;12.36;92.87
84914;BME280;75177;43.832;5.974;2024-03-02T12:17:57;94196.72;;;12.24;94.45
84914;BME280;75177;43.832;5.974;2024-03-02T12:20:24;94189.72;;;12.10;95.30
84914;BME280;75177;43.832;5.974;2024-03-02T12:22:51;94189.31;;;12.26;94.32
84914;BME280;75177;43.832;5.974;2024-03-02T12:25:18;94181.09;;;12.21;96.29
84914;BME280;75177;43.832;5.974;2024-03-02T12:27:45;94186.03;;;12.24;96.44
84914;BME280;75177;43.832;5.974;2024-03-02T12:30:11;94176.56;;;12.28;95.38
84914;BME280;75177;43.832;5.974;2024-03-02T12:32:39;94170.19;;;12.29;97.84
84914;BME280;75177;43.832;5.974;2024-03-02T12:35:05;94172.06;;;12.35;97.48
84914;BME280;75177;43.832;5.974;2024-03-02T12:37:30;94173.91;;;12.48;96.77
84914;BME280;75177;43.832;5.974;2024-03-02T12:39:56;94179.69;;;12.51;95.76
84914;BME280;75177;43.832;5.974;2024-03-02T12:42:24;94176.16;;;12.57;94.54
84914;BME280;75177;43.832;5.974;2024-03-02T12:44:53;94171.03;;;12.49;98.11
84914;BME280;75177;43.832;5.974;2024-03-02T12:47:21;94168.97;;;12.64;96.96
84914;BME280;75177;43.832;5.974;2024-03-02T12:49:46;94173.09;;;12.73;94.22
84914;BME280;75177;43.832;5.974;2024-03-02T12:52:13;94151.84;;;12.65;95.30
84914;BME280;75177;43.832;5.974;2024-03-02T12:54:38;94169.16;;;12.69;94.85
84914;BME280;75177;43.832;5.974;2024-03-02T12:57:04;94179.88;;;12.69;95.48
84914;BME280;75177;43.832;5.974;2024-03-02T12:59:30;94169.38;;;12.61;96.68
84914;BME280;75177;43.832;5.974;2024-03-02T13:01:56;94177.00;;;12.71;96.27
84914;BME280;75177;43.832;5.974;2024-03-02T13:04:29;94179.06;;;12.69;97.11
84914;BME280;75177;43.832;5.974;2024-03-02T13:06:56;94175.34;;;12.70;98.67
84914;BME280;75177;43.832;5.974;2024-03-02T13:09:23;94188.13;;;12.61;99.82
84914;BME280;75177;43.832;5.974;2024-03-02T13:11:48;94179.47;;;12.59;100.00